sensor_id;sensor_type;location;lat;lon;timestamp;temperature;humidity
3794;DHT22;1912;51.358;12.282;2022-10-31T00:01:16;12.20;1.00
3794;DHT22;1912;51.358;12.282;2022-10-31T00:03:44;12.20;1.00
3794;DHT22;1912;51.358;12.282;2022-10-31T00:06:10;12.00;1.00
3794;DHT22;1912;51.358;12.282;2022-10-31T00:08:35;12.00;1.00
3794;DHT22;1912;51.358;12.282;2022-10-31T00:11:01;12.00;1.00
3794;DHT22;1912;51.358;12.282;2022-10-31T00:13:27;11.90;1.00
3794;DHT22;1912;51.358;12.282;2022-10-31T00:15:53;12.00;1.00
3794;DHT22;1912;51.358;12.282;2022-10-31T00:18:18;11.90;1.00
3794;DHT22;1912;51.358;12.282;2022-10-31T00:20:44;11.90;1.00
3794;DHT22;1912;51.358;12.282;2022-10-31T00:23:10;11.90;1.00
3794;DHT22;1912;51.358;12.282;2022-10-31T00:25:38;11.90;1.00
3794;DHT22;1912;51.358;12.282;2022-10-31T00:28:06;12.00;1.00
3794;DHT22;1912;51.358;12.282;2022-10-31T00:30:32;12.00;1.00
3794;DHT22;1912;51.358;12.282;2022-10-31T00:32:58;12.00;1.00
3794;DHT22;1912;51.358;12.282;2022-10-31T00:35:24;12.00;1.00
3794;DHT22;1912;51.358;12.282;2022-10-31T00:37:50;12.00;1.00
3794;DHT22;1912;51.358;12.282;2022-10-31T00:40:17;12.00;1.00
3794;DHT22;1912;51.358;12.282;2022-10-31T00:42:43;12.00;1.00
3794;DHT22;1912;51.358;12.282;2022-10-31T00:45:09;11.90;1.00
3794;DHT22;1912;51.358;12.282;2022-10-31T00:47:35;11.90;1.00
3794;DHT22;1912;51.358;12.282;2022-10-31T00:50:01;11.90;1.00
3794;DHT22;1912;51.358;12.282;2022-10-31T00:52:28;11.90;1.00
3794;DHT22;1912;51.358;12.282;2022-10-31T00:54:53;11.90;1.00
3794;DHT22;1912;51.358;12.282;2022-10-31T00:57:19;11.80;1.00
3794;DHT22;1912;51.358;12.282;2022-10-31T00:59:44;11.80;1.00
3794;DHT22;1912;51.358;12.282;2022-10-31T01:02:10;11.80;1.00
3794;DHT22;1912;51.358;12.282;2022-10-31T01:04:36;11.80;1.00
3794;DHT22;1912;51.358;12.282;2022-10-31T01:07:01;11.80;1.00
3794;DHT22;1912;51.358;12.282;2022-10-31T01:09:27;11.80;1.00
3794;DHT22;1912;51.358;12.282;2022-10-31T01:11:53;11.70;1.00
3794;DHT22;1912;51.358;12.282;2022-10-31T01:14:18;11.70;1.00
3794;DHT22;1912;51.358;12.282;2022-10-31T01:16:44;11.70;1.00
3794;DHT22;1912;51.358;12.282;2022-10-31T01:19:10;11.70;1.00
3794;DHT22;1912;51.358;12.282;2022-10-31T01:21:35;11.70;1.00
3794;DHT22;1912;51.358;12.282;2022-10-31T01:24:01;11.70;1.00
3794;DHT22;1912;51.358;12.282;2022-10-31T01:26:32;11.70;1.00
3794;DHT22;1912;51.358;12.282;2022-10-31T01:29:00;11.60;1.00
3794;DHT22;1912;51.358;12.282;2022-10-31T01:31:31;11.60;1.00
3794;DHT22;1912;51.358;12.282;2022-10-31T01:33:58;11.60;1.00
3794;DHT22;1912;51.358;12.282;2022-10-31T01:36:28;11.50;1.00
3794;DHT22;1912;51.358;12.282;2022-10-31T01:39:06;11.50;1.00
3794;DHT22;1912;51.358;12.282;2022-10-31T01:41:36;11.50;1.00
3794;DHT22;1912;51.358;12.282;2022-10-31T01:47:13;11.40;1.00
3794;DHT22;1912;51.358;12.282;2022-10-31T01:52:42;11.20;1.00
3794;DHT22;1912;51.358;12.282;2022-10-31T01:55:20;11.20;1.00
3794;DHT22;1912;51.358;12.282;2022-10-31T01:57:52;11.20;1.00
3794;DHT22;1912;51.358;12.282;2022-10-31T02:00:20;11.20;1.00
3794;DHT22;1912;51.358;12.282;2022-10-31T02:02:48;11.20;1.00
3794;DHT22;1912;51.358;12.282;2022-10-31T02:05:18;11.20;1.00
3794;DHT22;1912;51.358;12.282;2022-10-31T02:08:03;11.20;1.00
3794;DHT22;1912;51.358;12.282;2022-10-31T02:10:32;11.20;1.00
3794;DHT22;1912;51.358;12.282;2022-10-31T02:13:02;11.20;1.00
3794;DHT22;1912;51.358;12.282;2022-10-31T02:15:31;11.10;1.00
3794;DHT22;1912;51.358;12.282;2022-10-31T02:17:57;11.10;1.00
3794;DHT22;1912;51.358;12.282;2022-10-31T02:20:25;11.00;1.00
3794;DHT22;1912;51.358;12.282;2022-10-31T02:26:17;10.90;1.00
3794;DHT22;1912;51.358;12.282;2022-10-31T02:29:21;10.90;1.00
3794;DHT22;1912;51.358;12.282;2022-10-31T02:34:53;10.70;1.00
3794;DHT22;1912;51.358;12.282;2022-10-31T02:43:12;10.70;1.00
3794;DHT22;1912;51.358;12.282;2022-10-31T02:46:05;10.70;1.00
3794;DHT22;1912;51.358;12.282;2022-10-31T02:48:39;10.60;1.00
3794;DHT22;1912;51.358;12.282;2022-10-31T02:51:05;10.70;1.00
3794;DHT22;1912;51.358;12.282;2022-10-31T02:53:33;10.60;1.00
3794;DHT22;1912;51.358;12.282;2022-10-31T02:56:19;10.60;1.00
3794;DHT22;1912;51.358;12.282;2022-10-31T02:58:53;10.60;1.00
3794;DHT22;1912;51.358;12.282;2022-10-31T03:04:29;10.60;1.00
3794;DHT22;1912;51.358;12.282;2022-10-31T03:12:26;10.50;1.00
3794;DHT22;1912;51.358;12.282;2022-10-31T03:15:28;10.60;1.00
3794;DHT22;1912;51.358;12.282;2022-10-31T03:20:42;10.40;1.00
3794;DHT22;1912;51.358;12.282;2022-10-31T03:23:15;10.40;1.00
3794;DHT22;1912;51.358;12.282;2022-10-31T03:25:43;10.40;1.00
3794;DHT22;1912;51.358;12.282;2022-10-31T03:28:12;10.40;1.00
3794;DHT22;1912;51.358;12.282;2022-10-31T03:30:41;10.40;1.00
3794;DHT22;1912;51.358;12.282;2022-10-31T03:33:11;10.20;1.00
3794;DHT22;1912;51.358;12.282;2022-10-31T03:35:43;10.20;1.00
3794;DHT22;1912;51.358;12.282;2022-10-31T03:38:11;10.20;1.00
3794;DHT22;1912;51.358;12.282;2022-10-31T03:40:40;10.20;1.00
3794;DHT22;1912;51.358;12.282;2022-10-31T03:43:16;10.10;1.00
3794;DHT22;1912;51.358;12.282;2022-10-31T03:45:46;10.00;1.00
3794;DHT22;1912;51.358;12.282;2022-10-31T03:48:17;10.00;1.00
3794;DHT22;1912;51.358;12.282;2022-10-31T03:51:06;9.90;1.00
3794;DHT22;1912;51.358;12.282;2022-10-31T03:53:50;9.80;1.00
3794;DHT22;1912;51.358;12.282;2022-10-31T03:56:31;9.90;1.00
3794;DHT22;1912;51.358;12.282;2022-10-31T03:59:07;9.90;1.00
3794;DHT22;1912;51.358;12.282;2022-10-31T04:01:41;9.90;1.00
3794;DHT22;1912;51.358;12.282;2022-10-31T04:04:10;10.00;1.00
3794;DHT22;1912;51.358;12.282;2022-10-31T04:06:38;9.90;1.00
3794;DHT22;1912;51.358;12.282;2022-10-31T04:09:06;10.00;1.00
3794;DHT22;1912;51.358;12.282;2022-10-31T04:11:36;9.90;1.00
3794;DHT22;1912;51.358;12.282;2022-10-31T04:14:05;10.00;1.00
3794;DHT22;1912;51.358;12.282;2022-10-31T04:16:32;9.90;1.00
3794;DHT22;1912;51.358;12.282;2022-10-31T04:18:58;9.90;1.00
3794;DHT22;1912;51.358;12.282;2022-10-31T04:21:28;9.90;1.00
3794;DHT22;1912;51.358;12.282;2022-10-31T04:23:54;9.90;1.00
3794;DHT22;1912;51.358;12.282;2022-10-31T04:26:20;9.90;1.00
3794;DHT22;1912;51.358;12.282;2022-10-31T04:28:46;9.90;1.00
3794;DHT22;1912;51.358;12.282;2022-10-31T04:31:15;9.90;1.00
3794;DHT22;1912;51.358;12.282;2022-10-31T04:33:40;9.90;1.00
3794;DHT22;1912;51.358;12.282;2022-10-31T04:36:06;9.80;1.00
3794;DHT22;1912;51.358;12.282;2022-10-31T04:38:32;9.80;1.00
3794;DHT22;1912;51.358;12.282;2022-10-31T04:40:58;9.80;1.00
3794;DHT22;1912;51.358;12.282;2022-10-31T04:43:24;9.70;1.00
3794;DHT22;1912;51.358;12.282;2022-10-31T04:45:50;9.70;1.00
3794;DHT22;1912;51.358;12.282;2022-10-31T04:48:16;9.70;1.00
3794;DHT22;1912;51.358;12.282;2022-10-31T04:50:42;9.60;1.00
3794;DHT22;1912;51.358;12.282;2022-10-31T04:53:08;9.70;1.00
3794;DHT22;1912;51.358;12.282;2022-10-31T04:55:35;9.60;1.00
3794;DHT22;1912;51.358;12.282;2022-10-31T04:58:01;9.60;1.00
3794;DHT22;1912;51.358;12.282;2022-10-31T05:00:27;9.70;1.00
3794;DHT22;1912;51.358;12.282;2022-10-31T05:02:55;9.60;1.00
3794;DHT22;1912;51.358;12.282;2022-10-31T05:05:24;9.50;1.00
3794;DHT22;1912;51.358;12.282;2022-10-31T05:07:53;9.60;1.00
3794;DHT22;1912;51.358;12.282;2022-10-31T05:10:28;9.60;1.00
3794;DHT22;1912;51.358;12.282;2022-10-31T05:12:59;9.60;1.00
3794;DHT22;1912;51.358;12.282;2022-10-31T05:15:27;9.60;1.00
3794;DHT22;1912;51.358;12.282;2022-10-31T05:17:53;9.50;1.00
3794;DHT22;1912;51.358;12.282;2022-10-31T05:20:22;9.50;1.00
3794;DHT22;1912;51.358;12.282;2022-10-31T05:22:51;9.50;1.00
3794;DHT22;1912;51.358;12.282;2022-10-31T05:25:19;9.50;1.00
3794;DHT22;1912;51.358;12.282;2022-10-31T05:27:48;9.60;1.00
3794;DHT22;1912;51.358;12.282;2022-10-31T05:30:17;9.50;1.00
3794;DHT22;1912;51.358;12.282;2022-10-31T05:32:47;9.50;1.00
3794;DHT22;1912;51.358;12.282;2022-10-31T05:35:19;9.50;1.00
3794;DHT22;1912;51.358;12.282;2022-10-31T05:37:46;9.40;1.00
3794;DHT22;1912;51.358;12.282;2022-10-31T05:40:13;9.40;1.00
3794;DHT22;1912;51.358;12.282;2022-10-31T05:42:40;9.40;1.00
3794;DHT22;1912;51.358;12.282;2022-10-31T05:45:12;9.40;1.00
3794;DHT22;1912;51.358;12.282;2022-10-31T05:47:39;9.40;1.00
3794;DHT22;1912;51.358;12.282;2022-10-31T05:50:06;9.30;1.00
3794;DHT22;1912;51.358;12.282;2022-10-31T05:52:33;9.30;1.00
3794;DHT22;1912;51.358;12.282;2022-10-31T05:54:59;9.30;1.00
3794;DHT22;1912;51.358;12.282;2022-10-31T05:57:25;9.30;1.00
3794;DHT22;1912;51.358;12.282;2022-10-31T05:59:51;9.30;1.00
3794;DHT22;1912;51.358;12.282;2022-10-31T06:02:19;9.30;1.00
3794;DHT22;1912;51.358;12.282;2022-10-31T06:04:45;9.20;1.00
3794;DHT22;1912;51.358;12.282;2022-10-31T06:07:10;9.20;1.00
3794;DHT22;1912;51.358;12.282;2022-10-31T06:09:36;9.30;1.00
3794;DHT22;1912;51.358;12.282;2022-10-31T06:12:02;9.30;1.00
3794;DHT22;1912;51.358;12.282;2022-10-31T06:14:28;9.40;1.00
3794;DHT22;1912;51.358;12.282;2022-10-31T06:16:56;9.40;1.00
3794;DHT22;1912;51.358;12.282;2022-10-31T06:19:22;9.40;1.00
3794;DHT22;1912;51.358;12.282;2022-10-31T06:21:48;9.30;1.00
3794;DHT22;1912;51.358;12.282;2022-10-31T06:24:14;9.30;1.00
3794;DHT22;1912;51.358;12.282;2022-10-31T06:26:43;9.40;1.00
3794;DHT22;1912;51.358;12.282;2022-10-31T06:29:08;9.40;1.00
3794;DHT22;1912;51.358;12.282;2022-10-31T06:31:34;9.50;1.00
3794;DHT22;1912;51.358;12.282;2022-10-31T06:33:59;9.50;1.00
3794;DHT22;1912;51.358;12.282;2022-10-31T06:36:25;9.50;1.00
3794;DHT22;1912;51.358;12.282;2022-10-31T06:38:51;9.50;1.00
3794;DHT22;1912;51.358;12.282;2022-10-31T06:41:16;9.50;1.00
3794;DHT22;1912;51.358;12.282;2022-10-31T06:43:42;9.60;1.00
3794;DHT22;1912;51.358;12.282;2022-10-31T06:46:08;9.60;1.00
3794;DHT22;1912;51.358;12.282;2022-10-31T06:48:33;9.60;1.00
3794;DHT22;1912;51.358;12.282;2022-10-31T06:51:01;9.60;1.00
3794;DHT22;1912;51.358;12.282;2022-10-31T06:53:27;9.60;1.00
3794;DHT22;1912;51.358;12.282;2022-10-31T06:55:56;9.70;1.00
3794;DHT22;1912;51.358;12.282;2022-10-31T06:58:22;9.70;1.00
3794;DHT22;1912;51.358;12.282;2022-10-31T07:00:48;9.70;1.00
3794;DHT22;1912;51.358;12.282;2022-10-31T07:03:14;9.70;1.00
3794;DHT22;1912;51.358;12.282;2022-10-31T07:05:41;9.80;1.00
3794;DHT22;1912;51.358;12.282;2022-10-31T07:08:10;9.90;1.00
3794;DHT22;1912;51.358;12.282;2022-10-31T07:10:38;9.90;1.00
3794;DHT22;1912;51.358;12.282;2022-10-31T07:13:11;10.00;1.00
3794;DHT22;1912;51.358;12.282;2022-10-31T07:15:40;10.00;1.00
3794;DHT22;1912;51.358;12.282;2022-10-31T07:18:08;10.10;1.00
3794;DHT22;1912;51.358;12.282;2022-10-31T07:20:35;10.20;1.00
3794;DHT22;1912;51.358;12.282;2022-10-31T07:23:01;10.30;1.00
3794;DHT22;1912;51.358;12.282;2022-10-31T07:25:27;10.40;1.00
3794;DHT22;1912;51.358;12.282;2022-10-31T07:27:53;10.50;1.00
3794;DHT22;1912;51.358;12.282;2022-10-31T07:30:18;10.60;1.00
3794;DHT22;1912;51.358;12.282;2022-10-31T07:32:47;10.70;1.00
3794;DHT22;1912;51.358;12.282;2022-10-31T07:35:19;10.80;1.00
3794;DHT22;1912;51.358;12.282;2022-10-31T07:37:47;10.90;1.00
3794;DHT22;1912;51.358;12.282;2022-10-31T07:40:13;11.10;1.00
3794;DHT22;1912;51.358;12.282;2022-10-31T07:42:40;11.30;1.00
3794;DHT22;1912;51.358;12.282;2022-10-31T07:45:12;11.50;1.00
3794;DHT22;1912;51.358;12.282;2022-10-31T07:47:47;11.80;1.00
3794;DHT22;1912;51.358;12.282;2022-10-31T07:50:25;12.20;1.00
3794;DHT22;1912;51.358;12.282;2022-10-31T07:55:37;12.80;1.00
3794;DHT22;1912;51.358;12.282;2022-10-31T07:58:10;13.20;1.00
3794;DHT22;1912;51.358;12.282;2022-10-31T08:00:42;13.40;1.00
3794;DHT22;1912;51.358;12.282;2022-10-31T08:03:11;13.60;1.00
3794;DHT22;1912;51.358;12.282;2022-10-31T08:05:41;13.90;1.00
3794;DHT22;1912;51.358;12.282;2022-10-31T08:08:08;14.20;1.00
3794;DHT22;1912;51.358;12.282;2022-10-31T08:10:34;14.50;1.00
3794;DHT22;1912;51.358;12.282;2022-10-31T08:13:03;14.80;1.00
3794;DHT22;1912;51.358;12.282;2022-10-31T08:15:30;15.00;1.00
3794;DHT22;1912;51.358;12.282;2022-10-31T08:17:57;15.20;1.00
3794;DHT22;1912;51.358;12.282;2022-10-31T08:20:22;15.40;1.00
3794;DHT22;1912;51.358;12.282;2022-10-31T08:23:03;15.70;1.00
3794;DHT22;1912;51.358;12.282;2022-10-31T08:25:32;15.90;1.00
3794;DHT22;1912;51.358;12.282;2022-10-31T08:27:59;16.00;1.00
3794;DHT22;1912;51.358;12.282;2022-10-31T08:30:35;16.10;1.00
3794;DHT22;1912;51.358;12.282;2022-10-31T08:33:04;16.20;1.00
3794;DHT22;1912;51.358;12.282;2022-10-31T08:35:32;16.30;1.00
3794;DHT22;1912;51.358;12.282;2022-10-31T08:37:58;16.30;1.00
3794;DHT22;1912;51.358;12.282;2022-10-31T08:40:25;16.50;1.00
3794;DHT22;1912;51.358;12.282;2022-10-31T08:45:24;16.70;1.00
3794;DHT22;1912;51.358;12.282;2022-10-31T08:47:49;16.90;1.00
3794;DHT22;1912;51.358;12.282;2022-10-31T08:50:15;16.90;1.00
3794;DHT22;1912;51.358;12.282;2022-10-31T08:52:41;17.00;1.00
3794;DHT22;1912;51.358;12.282;2022-10-31T08:55:07;17.00;1.00
3794;DHT22;1912;51.358;12.282;2022-10-31T08:57:33;17.00;1.00
3794;DHT22;1912;51.358;12.282;2022-10-31T08:59:58;17.10;1.00
3794;DHT22;1912;51.358;12.282;2022-10-31T09:02:24;17.10;1.00
3794;DHT22;1912;51.358;12.282;2022-10-31T09:04:50;17.10;1.00
3794;DHT22;1912;51.358;12.282;2022-10-31T09:07:15;17.10;1.00
3794;DHT22;1912;51.358;12.282;2022-10-31T09:09:41;17.10;1.00
3794;DHT22;1912;51.358;12.282;2022-10-31T09:12:07;17.20;1.00
3794;DHT22;1912;51.358;12.282;2022-10-31T09:14:32;17.50;1.00
3794;DHT22;1912;51.358;12.282;2022-10-31T09:16:58;17.60;1.00
3794;DHT22;1912;51.358;12.282;2022-10-31T09:19:24;17.80;1.00
3794;DHT22;1912;51.358;12.282;2022-10-31T09:21:52;17.80;1.00
3794;DHT22;1912;51.358;12.282;2022-10-31T09:24:19;18.00;1.00
3794;DHT22;1912;51.358;12.282;2022-10-31T09:26:45;18.30;1.00
3794;DHT22;1912;51.358;12.282;2022-10-31T09:29:10;18.40;1.00
3794;DHT22;1912;51.358;12.282;2022-10-31T09:31:36;18.30;1.00
3794;DHT22;1912;51.358;12.282;2022-10-31T09:34:02;18.40;1.00
3794;DHT22;1912;51.358;12.282;2022-10-31T09:36:28;18.30;1.00
3794;DHT22;1912;51.358;12.282;2022-10-31T09:38:53;18.30;1.00
3794;DHT22;1912;51.358;12.282;2022-10-31T09:44:06;18.30;1.00
3794;DHT22;1912;51.358;12.282;2022-10-31T09:53:00;18.40;1.00
3794;DHT22;1912;51.358;12.282;2022-10-31T09:55:45;18.40;1.00
3794;DHT22;1912;51.358;12.282;2022-10-31T09:58:19;18.50;1.00
3794;DHT22;1912;51.358;12.282;2022-10-31T10:00:48;18.90;1.00
3794;DHT22;1912;51.358;12.282;2022-10-31T10:03:34;18.70;1.00
3794;DHT22;1912;51.358;12.282;2022-10-31T10:06:17;18.80;1.00
3794;DHT22;1912;51.358;12.282;2022-10-31T10:08:45;19.00;1.00
3794;DHT22;1912;51.358;12.282;2022-10-31T10:14:15;18.80;1.00
3794;DHT22;1912;51.358;12.282;2022-10-31T10:17:11;18.90;1.00
3794;DHT22;1912;51.358;12.282;2022-10-31T10:20:03;18.90;1.00
3794;DHT22;1912;51.358;12.282;2022-10-31T10:22:46;19.10;1.00
3794;DHT22;1912;51.358;12.282;2022-10-31T10:25:40;18.90;1.00
3794;DHT22;1912;51.358;12.282;2022-10-31T10:28:27;18.80;1.00
3794;DHT22;1912;51.358;12.282;2022-10-31T10:30:57;18.70;1.00
3794;DHT22;1912;51.358;12.282;2022-10-31T10:33:35;18.70;1.00
3794;DHT22;1912;51.358;12.282;2022-10-31T10:36:17;18.80;1.00
3794;DHT22;1912;51.358;12.282;2022-10-31T10:41:20;18.80;1.00
3794;DHT22;1912;51.358;12.282;2022-10-31T10:43:49;18.50;1.00
3794;DHT22;1912;51.358;12.282;2022-10-31T10:46:40;18.40;1.00
3794;DHT22;1912;51.358;12.282;2022-10-31T10:52:38;18.70;1.00
3794;DHT22;1912;51.358;12.282;2022-10-31T10:58:00;18.90;1.00
3794;DHT22;1912;51.358;12.282;2022-10-31T11:00:32;18.80;1.00
3794;DHT22;1912;51.358;12.282;2022-10-31T11:03:01;18.70;1.00
3794;DHT22;1912;51.358;12.282;2022-10-31T11:07:58;18.80;1.00
3794;DHT22;1912;51.358;12.282;2022-10-31T11:10:24;18.90;1.00
3794;DHT22;1912;51.358;12.282;2022-10-31T11:16:12;19.10;1.00
3794;DHT22;1912;51.358;12.282;2022-10-31T11:18:42;19.10;1.00
3794;DHT22;1912;51.358;12.282;2022-10-31T11:21:28;19.20;1.00
3794;DHT22;1912;51.358;12.282;2022-10-31T11:26:44;19.20;1.00
3794;DHT22;1912;51.358;12.282;2022-10-31T11:29:22;19.10;1.00
3794;DHT22;1912;51.358;12.282;2022-10-31T11:31:55;19.00;1.00
3794;DHT22;1912;51.358;12.282;2022-10-31T11:34:42;18.90;1.00
3794;DHT22;1912;51.358;12.282;2022-10-31T11:37:22;18.90;1.00
3794;DHT22;1912;51.358;12.282;2022-10-31T11:39:53;18.90;1.00
3794;DHT22;1912;51.358;12.282;2022-10-31T11:42:23;19.00;1.00
3794;DHT22;1912;51.358;12.282;2022-10-31T11:44:51;19.20;1.00
3794;DHT22;1912;51.358;12.282;2022-10-31T11:47:28;19.30;1.00
3794;DHT22;1912;51.358;12.282;2022-10-31T11:49:55;19.30;1.00
3794;DHT22;1912;51.358;12.282;2022-10-31T11:52:22;19.50;1.00
3794;DHT22;1912;51.358;12.282;2022-10-31T11:55:02;19.30;1.00
3794;DHT22;1912;51.358;12.282;2022-10-31T11:57:48;19.30;1.00
3794;DHT22;1912;51.358;12.282;2022-10-31T12:00:37;19.40;1.00
3794;DHT22;1912;51.358;12.282;2022-10-31T12:06:02;19.10;1.00
3794;DHT22;1912;51.358;12.282;2022-10-31T12:08:31;19.00;1.00
3794;DHT22;1912;51.358;12.282;2022-10-31T12:14:26;19.50;1.00
3794;DHT22;1912;51.358;12.282;2022-10-31T12:17:19;19.50;1.00
3794;DHT22;1912;51.358;12.282;2022-10-31T12:20:02;19.30;1.00
3794;DHT22;1912;51.358;12.282;2022-10-31T12:28:37;19.30;1.00
3794;DHT22;1912;51.358;12.282;2022-10-31T12:37:44;19.30;1.00
3794;DHT22;1912;51.358;12.282;2022-10-31T12:40:41;19.30;1.00
3794;DHT22;1912;51.358;12.282;2022-10-31T12:44:00;19.40;1.00
3794;DHT22;1912;51.358;12.282;2022-10-31T12:46:57;19.40;1.00
3794;DHT22;1912;51.358;12.282;2022-10-31T12:50:06;19.40;1.00
3794;DHT22;1912;51.358;12.282;2022-10-31T12:55:14;19.40;1.00
3794;DHT22;1912;51.358;12.282;2022-10-31T12:58:12;19.40;1.00
3794;DHT22;1912;51.358;12.282;2022-10-31T13:00:45;19.50;1.00
3794;DHT22;1912;51.358;12.282;2022-10-31T13:03:18;19.40;1.00
3794;DHT22;1912;51.358;12.282;2022-10-31T13:05:53;19.60;1.00
3794;DHT22;1912;51.358;12.282;2022-10-31T13:08:33;19.60;1.00
3794;DHT22;1912;51.358;12.282;2022-10-31T13:11:10;19.60;1.00
3794;DHT22;1912;51.358;12.282;2022-10-31T13:13:53;19.40;1.00
3794;DHT22;1912;51.358;12.282;2022-10-31T13:16:25;19.50;1.00
3794;DHT22;1912;51.358;12.282;2022-10-31T13:19:02;19.50;1.00
3794;DHT22;1912;51.358;12.282;2022-10-31T13:25:02;19.30;1.00
3794;DHT22;1912;51.358;12.282;2022-10-31T13:28:03;19.30;1.00
3794;DHT22;1912;51.358;12.282;2022-10-31T13:30:32;19.30;1.00
3794;DHT22;1912;51.358;12.282;2022-10-31T13:35:46;19.30;1.00
3794;DHT22;1912;51.358;12.282;2022-10-31T13:38:22;19.10;1.00
3794;DHT22;1912;51.358;12.282;2022-10-31T13:46:39;19.10;1.00
3794;DHT22;1912;51.358;12.282;2022-10-31T13:54:46;19.00;1.00
3794;DHT22;1912;51.358;12.282;2022-10-31T13:57:29;19.00;1.00
3794;DHT22;1912;51.358;12.282;2022-10-31T13:59:58;18.90;1.00
3794;DHT22;1912;51.358;12.282;2022-10-31T14:02:31;18.90;1.00
3794;DHT22;1912;51.358;12.282;2022-10-31T14:05:17;18.80;1.00
3794;DHT22;1912;51.358;12.282;2022-10-31T14:07:47;18.80;1.00
3794;DHT22;1912;51.358;12.282;2022-10-31T14:10:49;18.80;1.00
3794;DHT22;1912;51.358;12.282;2022-10-31T14:13:38;18.70;1.00
3794;DHT22;1912;51.358;12.282;2022-10-31T14:16:26;18.70;1.00
3794;DHT22;1912;51.358;12.282;2022-10-31T14:19:06;18.60;1.00
3794;DHT22;1912;51.358;12.282;2022-10-31T14:21:39;18.50;1.00
3794;DHT22;1912;51.358;12.282;2022-10-31T14:24:34;18.50;1.00
3794;DHT22;1912;51.358;12.282;2022-10-31T14:29:44;18.40;1.00
3794;DHT22;1912;51.358;12.282;2022-10-31T14:34:41;18.20;1.00
3794;DHT22;1912;51.358;12.282;2022-10-31T14:37:35;18.10;1.00
3794;DHT22;1912;51.358;12.282;2022-10-31T14:51:59;17.70;1.00
3794;DHT22;1912;51.358;12.282;2022-10-31T14:54:30;17.60;1.00
3794;DHT22;1912;51.358;12.282;2022-10-31T14:57:13;17.50;1.00
3794;DHT22;1912;51.358;12.282;2022-10-31T14:59:46;17.50;1.00
3794;DHT22;1912;51.358;12.282;2022-10-31T15:04:51;17.30;1.00
3794;DHT22;1912;51.358;12.282;2022-10-31T15:07:24;17.30;1.00
3794;DHT22;1912;51.358;12.282;2022-10-31T15:10:01;17.30;1.00
3794;DHT22;1912;51.358;12.282;2022-10-31T15:12:31;17.30;1.00
3794;DHT22;1912;51.358;12.282;2022-10-31T15:15:23;17.20;1.00
3794;DHT22;1912;51.358;12.282;2022-10-31T15:17:54;17.10;1.00
3794;DHT22;1912;51.358;12.282;2022-10-31T15:20:24;17.10;1.00
3794;DHT22;1912;51.358;12.282;2022-10-31T15:22:56;17.00;1.00
3794;DHT22;1912;51.358;12.282;2022-10-31T15:25:33;16.90;1.00
3794;DHT22;1912;51.358;12.282;2022-10-31T15:27:59;17.00;1.00
3794;DHT22;1912;51.358;12.282;2022-10-31T15:30:27;16.90;1.00
3794;DHT22;1912;51.358;12.282;2022-10-31T15:32:55;16.90;1.00
3794;DHT22;1912;51.358;12.282;2022-10-31T15:35:22;16.90;1.00
3794;DHT22;1912;51.358;12.282;2022-10-31T15:37:52;16.90;1.00
3794;DHT22;1912;51.358;12.282;2022-10-31T15:40:21;16.80;1.00
3794;DHT22;1912;51.358;12.282;2022-10-31T15:42:55;16.70;1.00
3794;DHT22;1912;51.358;12.282;2022-10-31T15:45:27;16.60;1.00
3794;DHT22;1912;51.358;12.282;2022-10-31T15:48:18;16.50;1.00
3794;DHT22;1912;51.358;12.282;2022-10-31T15:50:57;16.40;1.00
3794;DHT22;1912;51.358;12.282;2022-10-31T15:53:35;16.40;1.00
3794;DHT22;1912;51.358;12.282;2022-10-31T15:56:05;16.30;1.00
3794;DHT22;1912;51.358;12.282;2022-10-31T15:58:39;16.20;1.00
3794;DHT22;1912;51.358;12.282;2022-10-31T16:01:26;16.20;1.00
3794;DHT22;1912;51.358;12.282;2022-10-31T16:06:30;16.10;1.00
3794;DHT22;1912;51.358;12.282;2022-10-31T16:08:59;16.10;1.00
3794;DHT22;1912;51.358;12.282;2022-10-31T16:11:38;16.00;1.00
3794;DHT22;1912;51.358;12.282;2022-10-31T16:14:15;16.00;1.00
3794;DHT22;1912;51.358;12.282;2022-10-31T16:16:48;15.90;1.00
3794;DHT22;1912;51.358;12.282;2022-10-31T16:19:21;15.80;1.00
3794;DHT22;1912;51.358;12.282;2022-10-31T16:21:52;15.70;1.00
3794;DHT22;1912;51.358;12.282;2022-10-31T16:24:26;15.80;1.00
3794;DHT22;1912;51.358;12.282;2022-10-31T16:27:01;15.70;1.00
3794;DHT22;1912;51.358;12.282;2022-10-31T16:29:46;15.70;1.00
3794;DHT22;1912;51.358;12.282;2022-10-31T16:35:34;15.70;1.00
3794;DHT22;1912;51.358;12.282;2022-10-31T16:38:01;15.60;1.00
3794;DHT22;1912;51.358;12.282;2022-10-31T16:40:27;15.60;1.00
3794;DHT22;1912;51.358;12.282;2022-10-31T16:42:56;15.60;1.00
3794;DHT22;1912;51.358;12.282;2022-10-31T16:45:25;15.50;1.00
3794;DHT22;1912;51.358;12.282;2022-10-31T16:47:52;15.50;1.00
3794;DHT22;1912;51.358;12.282;2022-10-31T16:50:24;15.40;1.00
3794;DHT22;1912;51.358;12.282;2022-10-31T16:52:51;15.40;1.00
3794;DHT22;1912;51.358;12.282;2022-10-31T16:55:18;15.40;1.00
3794;DHT22;1912;51.358;12.282;2022-10-31T16:57:47;15.40;1.00
3794;DHT22;1912;51.358;12.282;2022-10-31T17:00:17;15.30;1.00
3794;DHT22;1912;51.358;12.282;2022-10-31T17:02:45;15.30;1.00
3794;DHT22;1912;51.358;12.282;2022-10-31T17:05:13;15.20;1.00
3794;DHT22;1912;51.358;12.282;2022-10-31T17:07:40;15.20;1.00
3794;DHT22;1912;51.358;12.282;2022-10-31T17:10:07;15.10;1.00
3794;DHT22;1912;51.358;12.282;2022-10-31T17:12:34;15.10;1.00
3794;DHT22;1912;51.358;12.282;2022-10-31T17:15:00;15.00;1.00
3794;DHT22;1912;51.358;12.282;2022-10-31T17:17:26;15.00;1.00
3794;DHT22;1912;51.358;12.282;2022-10-31T17:19:52;14.90;1.00
3794;DHT22;1912;51.358;12.282;2022-10-31T17:22:18;14.90;1.00
3794;DHT22;1912;51.358;12.282;2022-10-31T17:24:43;14.90;1.00
3794;DHT22;1912;51.358;12.282;2022-10-31T17:27:09;14.80;1.00
3794;DHT22;1912;51.358;12.282;2022-10-31T17:29:35;14.80;1.00
3794;DHT22;1912;51.358;12.282;2022-10-31T17:32:01;14.80;1.00
3794;DHT22;1912;51.358;12.282;2022-10-31T17:34:28;14.80;1.00
3794;DHT22;1912;51.358;12.282;2022-10-31T17:36:54;14.70;1.00
3794;DHT22;1912;51.358;12.282;2022-10-31T17:39:20;14.70;1.00
3794;DHT22;1912;51.358;12.282;2022-10-31T17:41:50;14.70;1.00
3794;DHT22;1912;51.358;12.282;2022-10-31T17:44:17;14.70;1.00
3794;DHT22;1912;51.358;12.282;2022-10-31T17:46:43;14.70;1.00
3794;DHT22;1912;51.358;12.282;2022-10-31T17:49:10;14.60;1.00
3794;DHT22;1912;51.358;12.282;2022-10-31T17:51:36;14.60;1.00
3794;DHT22;1912;51.358;12.282;2022-10-31T17:54:03;14.60;1.00
3794;DHT22;1912;51.358;12.282;2022-10-31T17:56:30;14.50;1.00
3794;DHT22;1912;51.358;12.282;2022-10-31T17:58:56;14.50;1.00
3794;DHT22;1912;51.358;12.282;2022-10-31T18:01:22;14.40;1.00
3794;DHT22;1912;51.358;12.282;2022-10-31T18:03:48;14.40;1.00
3794;DHT22;1912;51.358;12.282;2022-10-31T18:06:14;14.40;1.00
3794;DHT22;1912;51.358;12.282;2022-10-31T18:08:41;14.40;1.00
3794;DHT22;1912;51.358;12.282;2022-10-31T18:11:15;14.30;1.00
3794;DHT22;1912;51.358;12.282;2022-10-31T18:13:42;14.30;1.00
3794;DHT22;1912;51.358;12.282;2022-10-31T18:16:13;14.30;1.00
3794;DHT22;1912;51.358;12.282;2022-10-31T18:18:40;14.30;1.00
3794;DHT22;1912;51.358;12.282;2022-10-31T18:21:06;14.20;1.00
3794;DHT22;1912;51.358;12.282;2022-10-31T18:23:32;14.20;1.00
3794;DHT22;1912;51.358;12.282;2022-10-31T18:25:58;14.20;1.00
3794;DHT22;1912;51.358;12.282;2022-10-31T18:28:24;14.10;1.00
3794;DHT22;1912;51.358;12.282;2022-10-31T18:30:49;14.10;1.00
3794;DHT22;1912;51.358;12.282;2022-10-31T18:33:15;14.00;1.00
3794;DHT22;1912;51.358;12.282;2022-10-31T18:35:41;14.00;1.00
3794;DHT22;1912;51.358;12.282;2022-10-31T18:38:07;14.00;1.00